Home > Products > Valid Products > TAF

000
FTUS43 KIND 020800 AAA
TAFLAF
TAF AMD
KLAF 020822Z 0208/0306 15006KT P6SM SCT060 BKN250
     FM021000 15007KT 6SM -SHRA SCT025 OVC060
      TEMPO 0211/0215 4SM -SHRA BR BKN025 OVC060
     FM021600 20008KT P6SM SCT040 BKN100
     FM022000 19008KT P6SM VCTS BKN040CB
      AMD LTD TO CLD VIS AND WIND TIL 021300=



000
FTUS43 KIND 020800 AAA
TAFIND
TAF AMD
KIND 020814Z 0208/0312 13007KT P6SM SCT060 BKN250
     FM021000 15007KT P6SM BKN060 OVC100
      TEMPO 0212/0216 4SM -SHRA BR SCT025 OVC060
     FM021600 18010KT P6SM SCT040 BKN150
     FM030000 15008KT P6SM VCTS BKN040CB=



000
FTUS43 KIND 020500
TAFLAF
TAF
KLAF 020527Z 0206/0306 13005KT P6SM SCT100 BKN250
     FM020900 15005KT P6SM VCSH SCT025 BKN050
      TEMPO 0211/0213 4SM -SHRA
     FM021400 20008KT P6SM SCT040 BKN100
     FM022000 19008KT P6SM VCTS BKN040CB
      AMD LTD TO CLD VIS AND WIND TIL 021300=



000
FTUS43 KIND 020500
TAFIND
TAF
KIND 020527Z 0206/0312 11009KT P6SM SCT250
     FM020900 14006KT P6SM SCT050 BKN250
     FM021500 18010KT P6SM SCT040 BKN150
     FM030000 15008KT P6SM VCTS BKN040CB=



000
FTUS43 KIND 020200 AAA
TAFIND
TAF AMD
KIND 020217Z 0202/0306 11009KT P6SM SCT250
     FM020900 14006KT P6SM SCT050 BKN250
     FM021500 18010KT P6SM SCT040 BKN150
     FM030000 15008KT P6SM VCSH BKN040=



000
FTUS43 KIND 012300
TAFLAF
TAF
KLAF 012320Z 0200/0224 11006KT P6SM SCT250
     FM020400 13005KT P6SM SCT100 BKN250
     FM020900 15005KT P6SM VCSH BKN050 BKN250
     FM021400 20008KT P6SM SCT040 BKN100
     FM022000 19008KT P6SM VCSH BKN040
      AMD LTD TO CLD VIS AND WIND 0201/0213=



000
FTUS43 KIND 012300
TAFIND
TAF
KIND 012320Z 0200/0306 12006KT P6SM SCT250
     FM020900 14006KT P6SM SCT050 BKN250
     FM021500 18010KT P6SM SCT040 BKN150
     FM030000 15008KT P6SM VCSH BKN040=



000
FTUS43 KIND 012000 AAA
TAFIND
TAF AMD
KIND 012021Z 0120/0224 12006KT P6SM FEW070 SCT250
     FM020100 12005KT P6SM SCT250
     FM020900 14006KT P6SM BKN050 BKN250
     FM021800 18010KT P6SM VCSH OVC040=



000
FTUS43 KIND 011700
TAFLAF
TAF
KLAF 011724Z 0118/0218 12006KT P6SM FEW030 SCT250
     FM020100 13005KT P6SM SCT250
     FM020800 15005KT P6SM BKN050 BKN250
     FM021600 18008KT P6SM VCSH OVC040=



000
FTUS43 KIND 011700
TAFIND
TAF
KIND 011724Z 0118/0224 12006KT P6SM FEW030 SCT250
     FM020100 12005KT P6SM SCT250
     FM020900 14006KT P6SM BKN050 BKN250
     FM021800 18010KT P6SM VCSH OVC040=



000
FTUS43 KIND 011400 AAA
TAFIND
TAF AMD
KIND 011426Z 0114/0218 10007KT P6SM FEW030
     FM020100 12006KT P6SM SCT250
     FM020900 14006KT P6SM BKN050 BKN250=



000
FTUS43 KIND 011100
TAFLAF
TAF
KLAF 011122Z 0112/0212 09005KT P6SM SCT004
     FM011500 11007KT P6SM FEW020
     FM020100 13005KT P6SM SCT250
     FM020800 15006KT P6SM BKN050 BKN250
      AMD LTD TO CLD VIS AND WIND TIL 011300=



000
FTUS43 KIND 011100
TAFIND
TAF
KIND 011122Z 0112/0218 07006KT P6SM SCT004
     FM011500 10007KT P6SM FEW020
     FM020100 12006KT P6SM SCT250
     FM020900 14006KT P6SM BKN050 BKN250=



000
FTUS43 KIND 010800 AAA
TAFLAF
TAF AMD
KLAF 010820Z 0108/0206 08004KT P6SM SKC
      TEMPO 0110/0114 4SM BR
     FM011400 12005KT P6SM SCT250
      AMD LTD TO CLD VIS AND WIND TIL 011300=



000
FTUS43 KIND 010800 AAA
TAFIND
TAF AMD
KIND 010817Z 0108/0212 07005KT P6SM SKC
      TEMPO 0111/0113 5SM BR
     FM011300 12006KT P6SM SCT250=



000
FTUS43 KIND 010500
TAFIND
TAF
KIND 010528Z 0106/0212 05008KT P6SM SCT250
     FM010900 06004KT 3SM BR SCT250
     FM011300 12006KT P6SM SCT250=



000
FTUS43 KIND 010500
TAFLAF
TAF
KLAF 010528Z 0106/0206 04007KT P6SM SCT250
     FM010800 00000KT 3SM BR SCT008
      TEMPO 0110/0112 1SM BR
     FM011400 12005KT P6SM SCT250
      AMD LTD TO CLD VIS AND WIND TIL 011300=



000
FTUS43 KIND 010200 AAA
TAFIND
TAF AMD
KIND 010226Z 0102/0206 04007KT P6SM FEW035 SCT250
     FM010900 06004KT 3SM BR BKN008
     FM011300 12006KT P6SM SCT250=



000
FTUS43 KIND 302300
TAFIND
TAF
KIND 302320Z 0100/0206 34005KT P6SM FEW050 BKN250
     FM010100 03005KT P6SM BKN250
     FM010900 06004KT 3SM BR BKN008
     FM011300 12006KT P6SM SCT250=



000
FTUS43 KIND 302300
TAFLAF
TAF
KLAF 302320Z 0100/0124 02008KT P6SM BKN250
     FM010600 00000KT 3SM BR SCT008
      TEMPO 0108/0112 1/2SM FG BKN006
     FM011400 12005KT P6SM SCT250
      AMD LTD TO CLD VIS AND WIND 0101/0113=



000
FTUS43 KIND 302000 AAA
TAFIND
TAF AMD
KIND 302022Z 3020/0124 35007KT P6SM SCT050 BKN250
     FM010000 04006KT P6SM BKN250
     FM010900 06004KT 3SM BR SCT008
     FM011300 12006KT P6SM SCT250=



000
FTUS43 KIND 301700
TAFLAF
TAF
KLAF 301720Z 3018/0118 01008KT P6SM BKN050
     FM302000 01008KT P6SM SCT250
     FM010000 04005KT P6SM BKN250
     FM010600 00000KT 3SM BR SCT008
      TEMPO 0106/0110 1/2SM FG
     FM011300 12005KT P6SM SCT250=



000
FTUS43 KIND 301700
TAFIND
TAF
KIND 301720Z 3018/0124 35008KT P6SM SCT250
     FM010000 04006KT P6SM BKN250
     FM010900 06004KT 3SM BR SCT008
     FM011300 12006KT P6SM SCT250=



000
FTUS43 KIND 301400 AAA
TAFIND
TAF AMD
KIND 301426Z 3014/0118 36008KT P6SM OVC015
     FM301700 36008KT P6SM SCT030 SCT250
     FM010100 02006KT P6SM BKN250=



000
FTUS43 KIND 301100
TAFLAF
TAF
KLAF 301123Z 3012/0112 36009KT P6SM OVC012
     FM301800 36009KT P6SM SCT030 SCT250
     FM010100 03005KT P6SM BKN250
      AMD LTD TO CLD VIS AND WIND TIL 301300=



000
FTUS43 KIND 301100
TAFIND
TAF
KIND 301123Z 3012/0118 35007KT P6SM OVC007
      TEMPO 3012/3014 1 1/2SM BR OVC004
     FM301500 36008KT P6SM OVC015
     FM301700 36008KT P6SM SCT030 SCT250
     FM010100 02006KT P6SM BKN250=



000
FTUS43 KIND 301000 AAA
TAFIND
TAF AMD
KIND 301015Z 3010/0112 36008KT P6SM OVC007
      TEMPO 3010/3013 1 1/2SM BR OVC004
     FM301500 01008KT P6SM OVC015
     FM301800 31006KT P6SM SCT040
     FM010000 VRB04KT P6SM SKC=



000
FTUS43 KIND 300800 AAB
TAFIND
TAF AMD
KIND 300816Z 3008/0112 26004KT P6SM SKC
     FM301000 36008KT P6SM OVC007
      TEMPO 3010/3013 3SM BR OVC004
     FM301500 01008KT P6SM OVC015
     FM301800 31006KT P6SM SCT040
     FM010000 VRB04KT P6SM SKC=



000
FTUS43 KIND 300700 AAA
TAFLAF
TAF AMD
KLAF 300719Z 3007/0106 01009KT P6SM OVC007
     FM301100 01009KT P6SM OVC015
     FM301800 02006KT P6SM SCT040
     FM010000 00000KT P6SM SKC
      AMD LTD TO CLD VIS AND WIND TIL 301300=



000
FTUS43 KIND 300700 AAA
TAFIND
TAF AMD
KIND 300716Z 3007/0112 26004KT P6SM SKC
     FM301000 36008KT P6SM OVC007
      TEMPO 3010/3013 3SM BR OVC004
     FM301500 01008KT P6SM OVC015
     FM301800 31006KT P6SM SCT040
     FM010000 VRB04KT P6SM SKC=



000
FTUS43 KIND 300500
TAFLAF
TAF
KLAF 300521Z 3006/0106 36008KT 5SM BR OVC006
     FM301000 01006KT P6SM BKN020
     FM301600 02006KT P6SM SCT040
     FM010000 00000KT P6SM SKC
      AMD LTD TO CLD VIS AND WIND TIL 301300=



000
FTUS43 KIND 300500
TAFIND
TAF
KIND 300521Z 3006/0112 30004KT P6SM SKC
     FM301000 34006KT P6SM SCT050 BKN100
     FM301400 01006KT P6SM BKN020
     FM301800 31006KT P6SM SCT040
     FM010000 VRB04KT P6SM SKC=



000
FTUS43 KIND 300400 AAA
TAFLAF
TAF AMD
KLAF 300409Z 3004/3024 00000KT P6SM SKC
     FM300530 36008KT 5SM BR OVC006
     FM301200 01006KT P6SM SCT020 BKN040
     FM301800 02006KT P6SM SCT040
      AMD LTD TO CLD VIS AND WIND TIL 301300=



000
FTUS43 KIND 300200 AAA
TAFIND
TAF AMD
KIND 300226Z 3002/0106 36003KT P6SM SKC
     FM301000 34006KT P6SM SCT050 BKN100
     FM301400 01006KT P6SM SCT020 BKN040
     FM302000 31006KT P6SM SCT040=



000
FTUS43 KIND 292300
TAFLAF
TAF
KLAF 292323Z 3000/3024 00000KT P6SM SKC
     FM300700 35004KT 3SM BR SCT050 BKN100
     FM301000 01006KT P6SM SCT020 BKN040
     FM301800 02006KT P6SM SCT040
      AMD LTD TO CLD VIS AND WIND 3001/3013=



000
FTUS43 KIND 292300
TAFIND
TAF
KIND 292323Z 3000/0106 30004KT P6SM SKC
     FM301000 34006KT P6SM SCT050 BKN100
     FM301400 01006KT P6SM SCT020 BKN040
     FM302000 31006KT P6SM SCT040=



000
FTUS43 KIND 292000 AAA
TAFIND
TAF AMD
KIND 292025Z 2920/3024 32007KT P6SM SKC
     FM300000 VRB03KT P6SM SCT200
     FM301500 34008KT P6SM BKN040=



000
FTUS43 KIND 291700
TAFLAF
TAF
KLAF 291720Z 2918/3018 34004KT P6SM SKC
     FM300000 00000KT P6SM SCT200
     FM300700 00000KT 3SM BR SCT040 BKN100
     FM301300 36008KT P6SM BKN040=



000
FTUS43 KIND 291700
TAFIND
TAF
KIND 291720Z 2918/3024 32007KT P6SM SKC
     FM300000 VRB03KT P6SM SCT200
     FM301500 34008KT P6SM BKN040=



000
FTUS43 KIND 291400 AAA
TAFLAF
TAF AMD
KLAF 291414Z 2914/3012 VRB03KT P6SM SCT200
     FM291700 34004KT P6SM FEW050 SCT200
     FM300000 00000KT P6SM SCT250
     FM300700 00000KT 3SM BR SKC=



000
FTUS43 KIND 291400 AAA
TAFIND
TAF AMD
KIND 291413Z 2914/3018 VRB03KT P6SM SCT200
     FM291700 32006KT P6SM SCT050 SCT200
     FM300000 35003KT P6SM SCT250
     FM301500 34006KT P6SM SCT050 SCT200=



000
FTUS43 KIND 291100
TAFIND
TAF
KIND 291120Z 2912/3018 32006KT P6SM SCT200
     FM291500 32006KT P6SM SCT050 SCT200
     FM300000 35003KT P6SM SCT250
     FM301500 34006KT P6SM SCT050 SCT200=



000
FTUS43 KIND 291100
TAFLAF
TAF
KLAF 291120Z 2912/3012 00000KT 3SM BR SCT200
      TEMPO 2912/2913 1SM BR
     FM291430 34004KT P6SM FEW050 SCT200
     FM300000 00000KT P6SM SCT250
     FM300700 00000KT 3SM BR SKC
      AMD LTD TO CLD VIS AND WIND TIL 291300=



    US Dept of Commerce
    National Oceanic and Atmospheric Administration
    National Weather Service
    1325 East West Highway
    Silver Spring, MD 20910
    Page Author: NWS Internet Services Team
Disclaimer
Information Quality
Credits
Glossary
Privacy Policy
Freedom of Information Act (FOIA)
About Us
Career Opportunities